Time;durP1;ratioP1;P1;durP2;ratioP2;P2;SDS_P1;SDS_P2;PMS_P1;PMS_P2;Temp;Humidity;BMP_temperature;BMP_pressure;BME280_temperature;BME280_humidity;BME280_pressure;Samples;Min_cycle;Max_cycle;Signal;HPM_P1;HPM_P2
2022/11/30 00:01:20;;;;;;;35.33;22.70;;;;;;;7.38;100.00;98989.75;4991459;28;102745;-63
2022/11/30 00:03:48;;;;;;;32.40;20.13;;;;;;;7.64;100.00;98982.22;4990087;28;103957;-63
2022/11/30 00:06:21;;;;;;;33.87;23.13;;;;;;;7.63;99.73;98983.16;4988473;28;103216;-63
2022/11/30 00:08:52;;;;;;;35.13;22.10;;;;;;;7.56;99.66;98978.25;4989252;28;103900;-62
2022/11/30 00:11:21;;;;;;;33.60;21.03;;;;;;;7.35;100.00;98987.34;4988338;28;102773;-63
2022/11/30 00:13:49;;;;;;;36.43;23.70;;;;;;;7.38;100.00;98981.88;4970144;28;104536;-61
2022/11/30 00:16:17;;;;;;;37.33;21.77;;;;;;;7.44;100.00;98976.28;4990255;28;103181;-61
2022/11/30 00:18:45;;;;;;;32.40;20.27;;;;;;;7.47;100.00;98976.13;4988824;28;102805;-61
2022/11/30 00:21:14;;;;;;;34.00;21.03;;;;;;;7.34;100.00;98977.75;4973643;28;104684;-61
2022/11/30 00:23:46;;;;;;;38.33;24.57;;;;;;;7.35;100.00;98982.06;4972179;28;104316;-60
2022/11/30 00:26:15;;;;;;;36.40;23.70;;;;;;;7.44;100.00;98971.03;4989258;28;103208;-61
2022/11/30 00:28:45;;;;;;;36.23;24.27;;;;;;;7.36;100.00;98973.25;4987739;28;103034;-59
2022/11/30 00:31:18;;;;;;;38.60;24.37;;;;;;;7.53;100.00;98967.03;4989648;28;104055;-59
2022/11/30 00:33:46;;;;;;;35.27;23.13;;;;;;;7.45;100.00;98978.00;4987895;28;103314;-59
2022/11/30 00:36:20;;;;;;;36.03;23.83;;;;;;;7.50;100.00;98981.22;4984235;28;104148;-59
2022/11/30 00:38:51;;;;;;;32.73;21.33;;;;;;;7.54;100.00;98966.13;4989282;28;102958;-59
2022/11/30 00:41:20;;;;;;;35.77;24.33;;;;;;;7.36;100.00;98970.63;4988814;28;103754;-59
2022/11/30 00:43:48;;;;;;;38.17;24.07;;;;;;;7.45;100.00;98972.75;4986883;28;103623;-59
2022/11/30 00:46:16;;;;;;;35.57;23.63;;;;;;;7.44;100.00;98971.03;4968247;28;105064;-59
2022/11/30 00:48:45;;;;;;;32.83;23.10;;;;;;;7.41;100.00;98975.63;4969605;28;102738;-59
2022/11/30 00:51:13;;;;;;;36.47;22.53;;;;;;;7.42;100.00;98978.16;4970852;28;104546;-59
2022/11/30 00:53:41;;;;;;;34.30;22.13;;;;;;;7.50;100.00;98981.22;4985716;28;104145;-59
2022/11/30 00:56:11;;;;;;;28.87;19.23;;;;;;;7.58;100.00;98984.25;4967908;28;104416;-59
2022/11/30 00:58:39;;;;;;;35.83;22.50;;;;;;;7.33;100.00;98977.81;4983187;28;102835;-59
2022/11/30 01:01:07;;;;;;;35.47;20.87;;;;;;;7.46;100.00;98971.81;4989468;28;103754;-59
2022/11/30 01:03:36;;;;;;;31.87;20.90;;;;;;;7.48;100.00;98974.34;4964345;28;104124;-59
2022/11/30 01:06:09;;;;;;;34.43;21.37;;;;;;;7.48;100.00;98975.19;4986423;28;103285;-59
2022/11/30 01:08:37;;;;;;;30.97;17.97;;;;;;;7.66;100.00;98975.13;4984298;28;103885;-59
2022/11/30 01:11:08;;;;;;;34.80;22.90;;;;;;;7.70;99.77;98981.88;4986986;28;103849;-59
2022/11/30 01:13:38;;;;;;;30.17;20.43;;;;;;;7.72;99.14;98980.03;4986563;28;103237;-60
2022/11/30 01:16:10;;;;;;;37.97;23.77;;;;;;;7.48;100.00;98983.09;4985597;28;103151;-59
2022/11/30 01:18:39;;;;;;;34.30;21.13;;;;;;;7.64;99.74;98976.97;4970252;28;103214;-59
2022/11/30 01:21:12;;;;;;;29.17;18.90;;;;;;;7.79;99.51;98976.09;4989421;28;103581;-59
2022/11/30 01:23:40;;;;;;;28.47;19.87;;;;;;;7.67;99.35;98982.91;4994331;28;103928;-59
2022/11/30 01:26:09;;;;;;;30.97;20.03;;;;;;;7.42;100.00;98988.69;4989052;28;103191;-60
2022/11/30 01:28:39;;;;;;;34.87;22.03;;;;;;;7.42;100.00;98988.69;4990527;28;102862;-61
2022/11/30 01:31:09;;;;;;;27.30;18.37;;;;;;;7.69;100.00;98990.72;4989152;28;103594;-61
2022/11/30 01:33:37;;;;;;;35.60;22.07;;;;;;;7.65;99.52;98992.66;4987504;28;103930;-61
2022/11/30 01:36:09;;;;;;;33.03;20.87;;;;;;;7.71;98.59;98989.69;4988494;28;103258;-61
2022/11/30 01:38:41;;;;;;;30.07;21.13;;;;;;;7.69;98.82;98995.97;4993077;28;102782;-61
2022/11/30 01:41:11;;;;;;;26.20;17.47;;;;;;;7.82;98.79;98999.63;4990420;28;103516;-61
2022/11/30 01:43:43;;;;;;;31.33;21.50;;;;;;;7.81;97.86;99001.38;4971809;28;105773;-60
2022/11/30 01:46:32;;;;;;;32.43;20.97;;;;;;;7.62;98.29;99000.72;4990843;28;103321;-61
2022/11/30 01:49:05;;;;;;;33.30;22.53;;;;;;;7.77;98.58;98999.03;4990532;28;102652;-61
2022/11/30 01:51:37;;;;;;;32.17;22.83;;;;;;;7.53;98.43;99004.72;4988691;28;103506;-61
2022/11/30 01:54:08;;;;;;;35.90;21.40;;;;;;;7.54;98.87;99002.94;4990735;28;103246;-61
2022/11/30 01:56:39;;;;;;;28.87;20.70;;;;;;;7.34;100.00;99001.41;4972655;28;104267;-61
2022/11/30 01:59:09;;;;;;;29.93;21.43;;;;;;;7.37;99.98;98995.97;4971252;28;102771;-60
2022/11/30 02:01:37;;;;;;;35.57;20.87;;;;;;;7.46;100.00;98995.47;4986141;28;102669;-60
2022/11/30 02:04:12;;;;;;;30.97;19.80;;;;;;;7.53;99.16;98998.59;4969733;28;103712;-61
2022/11/30 02:06:40;;;;;;;31.23;20.93;;;;;;;7.57;98.87;99003.63;4971407;28;103940;-60
2022/11/30 02:09:12;;;;;;;30.67;21.07;;;;;;;7.70;98.56;98997.66;4992151;28;102679;-61
2022/11/30 02:11:40;;;;;;;27.37;18.17;;;;;;;7.71;98.24;99005.47;4984854;28;103865;-61
2022/11/30 02:14:23;;;;;;;29.77;17.87;;;;;;;7.77;98.39;98999.03;4969460;28;104300;-61
2022/11/30 02:17:00;;;;;;;26.03;17.73;;;;;;;7.62;98.04;98997.25;4972367;28;104191;-61
2022/11/30 02:20:00;;;;;;;28.60;18.37;;;;;;;7.54;99.43;99002.94;4986458;28;102796;-61
2022/11/30 02:22:44;;;;;;;29.70;19.87;;;;;;;7.54;99.11;99001.16;4990054;28;104013;-60
2022/11/30 02:25:20;;;;;;;25.80;16.97;;;;;;;7.63;99.16;99006.84;4989515;28;103255;-60
2022/11/30 02:28:10;;;;;;;28.57;19.33;;;;;;;7.51;98.76;98998.69;4984292;28;103742;-60
2022/11/30 02:30:44;;;;;;;21.83;15.73;;;;;;;7.72;98.69;98999.25;4992185;28;102808;-61
2022/11/30 02:33:16;;;;;;;24.90;18.47;;;;;;;7.59;98.30;99001.75;4975639;28;102920;-61
2022/11/30 02:35:47;;;;;;;26.07;17.90;;;;;;;7.45;99.20;99001.66;4970389;28;104180;-61
2022/11/30 02:38:23;;;;;;;28.03;18.40;;;;;;;7.55;98.99;99000.19;4991829;28;103296;-61
2022/11/30 02:40:51;;;;;;;30.77;19.77;;;;;;;7.52;98.42;98997.75;4986781;28;102676;-61
2022/11/30 02:43:22;;;;;;;21.23;14.63;;;;;;;7.66;98.39;98999.63;4985830;28;103773;-62
2022/11/30 02:45:59;;;;;;;28.07;18.77;;;;;;;7.63;98.17;99005.06;4984186;28;103772;-62
2022/11/30 02:48:32;;;;;;;21.03;15.83;;;;;;;7.64;98.44;99008.50;4987888;28;103288;-62
2022/11/30 02:51:04;;;;;;;27.03;19.57;;;;;;;7.49;98.25;99000.53;4984550;28;102723;-61
2022/11/30 02:53:32;;;;;;;23.43;17.70;;;;;;;7.57;98.26;99003.63;4971478;28;103756;-61
2022/11/30 02:56:00;;;;;;;21.00;15.60;;;;;;;7.63;98.98;99001.56;4970238;28;103240;-61
2022/11/30 02:58:28;;;;;;;27.00;18.03;;;;;;;7.59;98.05;99001.75;4989061;28;103370;-62
2022/11/30 03:00:57;;;;;;;23.93;16.47;;;;;;;7.70;97.81;98997.66;4986178;28;102682;-61
2022/11/30 03:03:25;;;;;;;20.03;14.27;;;;;;;7.69;98.67;99003.88;4982122;28;104383;-61
2022/11/30 03:05:53;;;;;;;22.70;16.23;;;;;;;7.82;97.83;99003.09;4987264;28;106813;-61
2022/11/30 03:08:23;;;;;;;22.03;15.40;;;;;;;7.87;96.93;99005.44;4970019;28;104148;-61
2022/11/30 03:10:51;;;;;;;19.57;13.73;;;;;;;7.90;97.09;99006.13;4968458;28;103104;-61
2022/11/30 03:13:19;;;;;;;25.13;16.63;;;;;;;7.76;96.61;99007.84;4984501;28;103596;-61
2022/11/30 03:15:47;;;;;;;19.43;14.23;;;;;;;7.88;96.43;99008.03;4964570;28;102851;-61
2022/11/30 03:18:16;;;;;;;21.83;15.90;;;;;;;7.81;96.23;99006.66;4984279;28;103283;-61
2022/11/30 03:20:44;;;;;;;21.13;14.27;;;;;;;7.77;96.62;99009.56;4965310;28;103233;-61
2022/11/30 03:23:12;;;;;;;23.37;17.87;;;;;;;7.75;96.56;99012.25;4983394;28;102689;-61
2022/11/30 03:25:40;;;;;;;24.00;17.13;;;;;;;7.62;96.85;99015.66;4984452;28;106970;-61
2022/11/30 03:28:08;;;;;;;20.37;15.10;;;;;;;7.65;96.83;99015.47;4982240;28;102653;-61
2022/11/30 03:30:38;;;;;;;21.93;15.80;;;;;;;7.67;97.31;99019.72;4983189;28;103047;-61
2022/11/30 03:33:06;;;;;;;24.63;16.00;;;;;;;7.71;97.21;99021.25;4966207;28;103983;-61
2022/11/30 03:35:35;;;;;;;20.50;15.27;;;;;;;7.83;96.91;99017.09;4969936;28;103986;-61
2022/11/30 03:38:03;;;;;;;25.93;17.63;;;;;;;7.85;96.53;99020.47;4967019;28;104199;-61
2022/11/30 03:40:33;;;;;;;18.53;14.57;;;;;;;7.79;96.45;99020.81;4986331;28;102720;-61
2022/11/30 03:43:01;;;;;;;16.37;12.13;;;;;;;7.92;95.85;99019.19;4968466;28;103982;-61
2022/11/30 03:45:29;;;;;;;20.97;14.73;;;;;;;7.80;95.30;99019.91;4986874;28;103895;-61
2022/11/30 03:47:57;;;;;;;20.93;14.53;;;;;;;7.75;96.09;99021.94;4989593;28;103342;-61
2022/11/30 03:50:25;;;;;;;19.93;13.50;;;;;;;7.84;96.21;99026.66;4988904;28;102681;-61
2022/11/30 03:52:54;;;;;;;17.47;11.67;;;;;;;7.92;96.36;99013.94;4989585;28;102737;-61
2022/11/30 03:55:22;;;;;;;18.97;13.80;;;;;;;7.75;96.08;99021.94;4987558;28;104018;-61
2022/11/30 03:57:49;;;;;;;21.13;15.13;;;;;;;7.80;96.29;99020.75;4992387;28;103178;-62
2022/11/30 04:00:19;;;;;;;17.83;13.97;;;;;;;7.75;96.10;99019.31;4992358;28;102692;-62
2022/11/30 04:02:47;;;;;;;22.30;15.40;;;;;;;7.84;96.63;99024.91;4975309;28;103685;-62
2022/11/30 04:05:15;;;;;;;20.23;14.13;;;;;;;7.73;96.09;99022.00;4990116;28;103732;-62
2022/11/30 04:07:45;;;;;;;20.73;14.07;;;;;;;7.70;96.78;99018.69;4986174;28;104459;-61
2022/11/30 04:10:14;;;;;;;18.30;12.27;;;;;;;7.68;97.23;99026.69;4996076;28;102813;-61
2022/11/30 04:12:42;;;;;;;17.40;12.90;;;;;;;7.65;97.49;99026.00;4970117;28;102831;-61
2022/11/30 04:15:10;;;;;;;14.13;10.07;;;;;;;7.71;97.78;99018.63;4968088;28;103974;-61
2022/11/30 04:17:41;;;;;;;17.97;13.47;;;;;;;7.65;97.45;99015.47;4983801;28;102685;-61
2022/11/30 04:20:10;;;;;;;21.97;14.77;;;;;;;7.62;97.69;99018.28;4985395;28;104140;-61
2022/11/30 04:22:37;;;;;;;16.23;11.70;;;;;;;7.72;97.70;99027.38;4986252;28;102831;-61
2022/11/30 04:25:06;;;;;;;16.33;12.83;;;;;;;7.80;97.14;99020.75;4985519;28;104268;-59
2022/11/30 04:27:35;;;;;;;18.03;12.80;;;;;;;7.89;97.03;99019.34;4980950;28;103238;-59
2022/11/30 04:30:04;;;;;;;17.70;11.80;;;;;;;7.93;96.70;99023.53;4980236;28;103082;-61
2022/11/30 04:32:32;;;;;;;19.47;14.60;;;;;;;7.69;96.02;99022.28;4983868;28;102854;-61
2022/11/30 04:35:02;;;;;;;18.93;13.27;;;;;;;7.64;96.52;99024.28;4988907;28;103248;-61
2022/11/30 04:37:30;;;;;;;13.63;11.53;;;;;;;7.64;98.19;99022.50;4985189;28;103363;-61
2022/11/30 04:39:58;;;;;;;14.70;10.57;;;;;;;7.44;99.08;99028.88;4971610;28;103788;-61
2022/11/30 04:42:26;;;;;;;15.67;11.77;;;;;;;7.62;98.66;99021.75;4985293;28;104283;-61
2022/11/30 04:44:55;;;;;;;18.93;13.37;;;;;;;7.29;99.47;99027.09;4984944;28;104138;-61
2022/11/30 04:47:23;;;;;;;15.93;11.20;;;;;;;7.57;100.00;99032.53;4984477;28;104395;-61
2022/11/30 04:49:51;;;;;;;15.13;12.23;;;;;;;7.59;98.71;99027.19;4970962;28;102757;-61
2022/11/30 04:52:19;;;;;;;13.93;9.87;;;;;;;7.72;98.77;99027.38;4969927;28;104461;-61
2022/11/30 04:54:49;;;;;;;16.20;11.17;;;;;;;7.72;97.98;99024.75;4984426;28;104000;-61
2022/11/30 04:57:17;;;;;;;17.73;11.90;;;;;;;7.67;97.85;99024.13;4982707;28;103285;-61
2022/11/30 04:59:45;;;;;;;18.07;13.37;;;;;;;7.49;99.77;99032.09;4980229;28;104388;-61
2022/11/30 05:02:14;;;;;;;18.13;12.37;;;;;;;7.42;99.13;99022.84;4985529;28;104079;-59
2022/11/30 05:04:42;;;;;;;17.67;12.70;;;;;;;7.62;98.97;99023.53;4983218;28;104069;-61
2022/11/30 05:07:10;;;;;;;13.87;9.80;;;;;;;7.79;98.84;99020.81;4990365;28;103767;-61
2022/11/30 05:09:38;;;;;;;12.90;10.00;;;;;;;7.85;98.48;99031.00;4974765;28;102765;-59
2022/11/30 05:12:06;;;;;;;13.70;10.60;;;;;;;7.68;98.20;99031.09;4991573;28;103668;-59
2022/11/30 05:14:37;;;;;;;19.37;14.60;;;;;;;7.41;98.55;99029.03;4973498;28;103112;-59
2022/11/30 05:17:05;;;;;;;15.87;10.97;;;;;;;7.62;98.89;99031.44;4984719;28;103156;-59
2022/11/30 05:19:34;;;;;;;16.77;11.73;;;;;;;7.63;98.56;99028.72;4984989;28;103543;-59
2022/11/30 05:22:02;;;;;;;16.27;11.20;;;;;;;7.68;98.29;99031.09;4972586;28;104058;-59
2022/11/30 05:24:29;;;;;;;14.70;10.90;;;;;;;7.85;98.01;99033.63;4988663;28;104083;-60
2022/11/30 05:26:57;;;;;;;12.20;8.57;;;;;;;7.86;97.36;99036.16;4988491;28;103634;-59
2022/11/30 05:29:25;;;;;;;15.83;12.33;;;;;;;7.66;96.99;99038.22;4988020;28;103024;-59
2022/11/30 05:31:53;;;;;;;15.40;11.83;;;;;;;7.76;97.53;99032.38;4988787;28;102700;-59
2022/11/30 05:34:23;;;;;;;17.47;11.70;;;;;;;7.74;97.12;99046.53;4986836;28;104649;-59
2022/11/30 05:36:52;;;;;;;15.47;11.93;;;;;;;7.67;97.21;99047.78;4969702;28;104116;-59
2022/11/30 05:39:20;;;;;;;14.10;10.70;;;;;;;7.67;97.61;99046.03;4972556;28;104353;-59
2022/11/30 05:41:48;;;;;;;12.67;10.03;;;;;;;7.82;97.73;99049.59;4989850;28;102801;-59
2022/11/30 05:44:16;;;;;;;15.30;11.97;;;;;;;7.81;97.41;99047.88;4988122;28;103941;-59
2022/11/30 05:46:44;;;;;;;12.53;9.13;;;;;;;7.75;97.11;99043.00;4984826;28;103145;-59
2022/11/30 05:49:12;;;;;;;15.17;12.47;;;;;;;7.71;96.94;99049.34;4986073;28;102938;-61
2022/11/30 05:51:40;;;;;;;13.37;10.20;;;;;;;7.51;98.65;99047.78;4969522;28;102774;-61
2022/11/30 05:54:10;;;;;;;14.27;9.80;;;;;;;7.68;98.25;99045.09;4989148;28;104283;-61
2022/11/30 05:56:38;;;;;;;17.17;12.10;;;;;;;7.64;97.70;99050.59;4986697;28;103184;-59
2022/11/30 05:59:05;;;;;;;16.63;9.73;;;;;;;7.58;98.67;99050.00;4966980;28;103119;-59
2022/11/30 06:01:33;;;;;;;15.37;10.50;;;;;;;7.51;98.59;99048.66;4987396;28;103049;-59
2022/11/30 06:04:04;;;;;;;14.63;10.40;;;;;;;7.63;98.32;99054.19;4968301;28;104809;-61
2022/11/30 06:06:35;;;;;;;17.07;10.47;;;;;;;7.67;98.03;99046.03;4974425;28;102983;-59
2022/11/30 06:09:03;;;;;;;11.90;8.83;;;;;;;7.81;98.06;99048.72;4984734;28;102691;-59
2022/11/30 06:11:33;;;;;;;15.43;10.07;;;;;;;7.63;98.28;99056.81;4986021;28;104090;-59
2022/11/30 06:14:01;;;;;;;12.30;9.60;;;;;;;7.78;97.60;99054.16;4968256;28;104267;-59
2022/11/30 06:16:29;;;;;;;18.13;11.37;;;;;;;7.69;97.31;99045.94;4985025;28;103251;-59
2022/11/30 06:19:02;;;;;;;12.63;9.27;;;;;;;7.56;98.32;99043.97;4987512;28;102932;-60
2022/11/30 06:21:30;;;;;;;16.93;11.57;;;;;;;7.64;97.94;99050.59;4988848;28;102690;-59
2022/11/30 06:28:39;;;;;;;15.37;11.43;;;;;;;7.79;97.09;99045.34;4991535;28;102806;-59
2022/11/30 06:31:13;;;;;;;15.13;10.93;;;;;;;7.70;97.47;99045.00;4984579;28;102656;-60
2022/11/30 06:33:41;;;;;;;16.67;11.13;;;;;;;7.73;97.23;99039.56;4984767;28;102685;-59
2022/11/30 06:36:10;;;;;;;13.07;10.17;;;;;;;7.77;97.90;99043.75;4966764;28;103745;-60
2022/11/30 06:38:38;;;;;;;13.27;9.80;;;;;;;7.60;98.04;99044.66;4957273;28;104131;-59
2022/11/30 06:41:09;;;;;;;13.77;10.20;;;;;;;7.54;97.90;99040.59;4978254;28;102726;-59
2022/11/30 06:43:39;;;;;;;12.20;8.10;;;;;;;7.76;97.93;99042.03;4978277;28;104016;-59
2022/11/30 06:46:07;;;;;;;11.27;8.60;;;;;;;7.89;97.71;99040.41;4962536;28;103736;-59
2022/11/30 07:14:51;;;;;;;14.30;11.57;;;;;;;7.89;96.73;99058.81;4954607;28;103148;-71
2022/11/30 07:17:19;;;;;;;15.13;11.20;;;;;;;7.53;98.21;99064.31;4943446;28;103308;-71
2022/11/30 07:19:47;;;;;;;14.97;10.57;;;;;;;7.79;98.64;99061.13;4945121;28;102728;-71
2022/11/30 07:22:15;;;;;;;22.00;14.20;;;;;;;7.67;98.96;99064.44;4950068;28;103866;-71
2022/11/30 07:27:28;;;;;;;17.40;11.93;;;;;;;7.44;100.00;99070.94;4959798;28;103208;-73
2022/11/30 07:29:57;;;;;;;14.47;10.93;;;;;;;7.15;100.00;99069.03;4955225;28;102655;-74
2022/11/30 07:32:25;;;;;;;14.10;8.90;;;;;;;7.54;100.00;99077.41;4963326;28;102836;-74
2022/11/30 07:34:53;;;;;;;16.50;11.60;;;;;;;7.57;100.00;99071.13;4955351;28;103243;-73
2022/11/30 07:37:20;;;;;;;18.67;12.13;;;;;;;7.44;100.00;99075.34;4951757;28;103858;-71
2022/11/30 07:39:48;;;;;;;16.60;12.17;;;;;;;7.00;100.00;99081.16;4959660;28;102807;-74
2022/11/30 07:42:16;;;;;;;18.20;11.60;;;;;;;7.46;100.00;99069.09;4958508;28;103860;-74
2022/11/30 07:44:44;;;;;;;15.93;12.33;;;;;;;7.21;100.00;99079.22;4967545;28;103239;-74
2022/11/30 07:47:15;;;;;;;15.70;11.27;;;;;;;7.25;100.00;99078.09;4955320;28;103152;-74
2022/11/30 07:49:42;;;;;;;14.77;10.90;;;;;;;7.54;100.00;99072.16;4952359;28;102647;-75
2022/11/30 07:52:10;;;;;;;14.53;10.60;;;;;;;7.47;100.00;99070.78;4966749;28;104010;-74
2022/11/30 07:54:38;;;;;;;15.33;9.63;;;;;;;7.57;100.00;99077.25;4971375;28;103960;-75
2022/11/30 07:57:08;;;;;;;12.07;8.63;;;;;;;7.89;100.00;99077.25;4961978;28;103178;-75
2022/11/30 07:59:36;;;;;;;16.27;11.47;;;;;;;7.89;99.40;99072.81;4942719;28;102802;-74
2022/11/30 08:02:04;;;;;;;12.90;10.40;;;;;;;8.02;99.70;99080.91;4960759;28;103762;-74
2022/11/30 08:04:33;;;;;;;13.10;10.57;;;;;;;8.13;99.11;99079.38;4956425;28;103351;-74
2022/11/30 08:07:01;;;;;;;18.00;13.07;;;;;;;7.98;97.26;99087.25;4962709;28;104310;-74
2022/11/30 08:09:29;;;;;;;16.40;11.60;;;;;;;8.14;97.90;99083.69;4967988;28;102600;-73
2022/11/30 08:11:57;;;;;;;14.00;11.07;;;;;;;8.18;97.09;99094.88;4959238;28;103497;-74
2022/11/30 08:14:26;;;;;;;15.83;11.67;;;;;;;7.76;99.46;99092.00;4971758;28;103019;-74
2022/11/30 08:16:54;;;;;;;16.43;11.03;;;;;;;7.76;100.00;99094.63;4962486;28;102484;-74
2022/11/30 08:19:22;;;;;;;16.10;12.07;;;;;;;7.56;100.00;99100.97;4974014;28;102800;-73
2022/11/30 08:21:51;;;;;;;16.63;12.13;;;;;;;7.44;100.00;99099.84;4964436;28;103808;-74
2022/11/30 08:24:21;;;;;;;16.40;12.53;;;;;;;7.46;100.00;99098.00;4956911;28;104314;-74
2022/11/30 08:26:50;;;;;;;18.87;13.00;;;;;;;7.32;100.00;99097.88;4968623;28;103257;-74
2022/11/30 08:29:19;;;;;;;20.07;13.00;;;;;;;7.71;100.00;99100.16;4963882;28;102628;-74
2022/11/30 08:31:46;;;;;;;13.83;10.40;;;;;;;8.26;100.00;99087.41;4967809;28;102605;-74
2022/11/30 08:34:14;;;;;;;18.60;12.50;;;;;;;7.82;98.13;99104.84;4962436;28;103461;-74
2022/11/30 08:36:43;;;;;;;20.07;14.00;;;;;;;8.04;99.32;99095.66;4968680;28;103155;-75
2022/11/30 08:39:19;;;;;;;17.73;12.33;;;;;;;8.49;98.73;99101.94;4970770;28;102527;-78
2022/11/30 08:41:47;;;;;;;13.90;10.37;;;;;;;8.62;97.66;99095.84;4973379;28;102797;-75
2022/11/30 08:44:18;;;;;;;16.17;12.33;;;;;;;8.74;96.37;99099.56;4967271;28;104009;-76
2022/11/30 08:46:46;;;;;;;20.30;13.80;;;;;;;8.76;95.26;99107.41;4966005;28;103236;-76
2022/11/30 08:49:34;;;;;;;19.70;14.00;;;;;;;8.27;95.49;99098.78;4972085;28;102775;-76
2022/11/30 08:52:01;;;;;;;17.97;13.47;;;;;;;7.98;98.52;99100.41;4968821;28;102739;-74
2022/11/30 08:54:47;;;;;;;16.87;13.53;;;;;;;8.37;97.72;99107.88;4960444;28;103447;-74
2022/11/30 08:57:17;;;;;;;18.17;13.40;;;;;;;8.53;95.95;99104.28;4975379;28;103017;-74
2022/11/30 08:59:45;;;;;;;17.00;13.30;;;;;;;8.36;94.95;99108.84;4966853;28;102651;-73
2022/11/30 09:02:16;;;;;;;19.23;13.50;;;;;;;8.39;96.42;99104.25;4961832;28;102637;-74
2022/11/30 09:04:44;;;;;;;20.63;14.13;;;;;;;8.13;97.10;99115.38;4958687;28;103240;-75
2022/11/30 09:07:12;;;;;;;19.43;12.90;;;;;;;8.18;98.81;99118.59;4970644;28;103258;-74
2022/11/30 09:09:40;;;;;;;19.77;14.13;;;;;;;7.95;100.00;99119.84;4978409;28;102715;-74
2022/11/30 09:12:11;;;;;;;23.23;13.67;;;;;;;7.92;99.18;99119.16;4943989;28;102718;-74
2022/11/30 09:14:39;;;;;;;20.93;14.57;;;;;;;8.46;99.41;99124.03;4960178;28;103313;-74
2022/11/30 09:17:09;;;;;;;19.90;13.73;;;;;;;8.89;97.13;99113.63;4955156;28;103280;-74
2022/11/30 09:19:37;;;;;;;19.17;13.23;;;;;;;9.03;94.72;99119.78;4950055;28;102625;-74
2022/11/30 09:22:05;;;;;;;18.70;13.57;;;;;;;9.27;93.96;99120.09;4955670;28;102656;-74
2022/11/30 09:24:33;;;;;;;17.40;12.40;;;;;;;9.32;92.55;99131.19;4964933;28;103527;-74
2022/11/30 09:27:00;;;;;;;22.63;15.13;;;;;;;9.21;89.77;99125.72;4957220;28;103368;-74
2022/11/30 09:29:30;;;;;;;21.53;15.13;;;;;;;8.56;93.47;99127.00;4961100;28;102685;-74
2022/11/30 09:31:57;;;;;;;22.10;15.40;;;;;;;8.35;96.71;99131.69;4976431;28;102893;-75
2022/11/30 09:34:25;;;;;;;21.67;15.23;;;;;;;8.10;98.07;99133.94;4960767;28;103071;-74
2022/11/30 09:36:53;;;;;;;20.13;14.53;;;;;;;8.15;97.86;99127.50;4963239;28;104320;-74
2022/11/30 09:39:21;;;;;;;21.27;14.87;;;;;;;8.05;98.59;99136.00;4965353;28;102569;-74
2022/11/30 09:42:18;;;;;;;19.27;13.87;;;;;;;8.55;96.44;99136.66;4983232;28;104280;-74
2022/11/30 09:44:57;;;;;;;21.77;15.93;;;;;;;8.69;93.54;99127.97;4966476;28;103250;-74
2022/11/30 09:47:38;;;;;;;22.17;15.90;;;;;;;8.26;94.96;99128.66;4967851;28;103316;-74
2022/11/30 09:50:13;;;;;;;23.07;16.57;;;;;;;8.21;95.07;99136.84;4964543;28;102600;-74
2022/11/30 09:52:44;;;;;;;18.67;13.37;;;;;;;8.09;95.88;99143.63;4977693;28;104253;-74
2022/11/30 09:55:18;;;;;;;24.17;16.27;;;;;;;8.27;94.54;99136.53;4978060;28;104513;-73
2022/11/30 09:57:48;;;;;;;26.07;17.37;;;;;;;8.27;93.13;99133.91;4964467;28;103272;-75
2022/11/30 10:00:20;;;;;;;24.80;17.47;;;;;;;8.02;94.47;99129.13;4954300;28;102636;-74
2022/11/30 10:02:50;;;;;;;21.57;16.33;;;;;;;8.12;93.80;99129.44;4954157;28;102702;-74
2022/11/30 10:05:21;;;;;;;22.93;15.93;;;;;;;8.47;92.26;99125.72;4961215;28;103649;-74
2022/11/30 10:08:09;;;;;;;21.07;15.50;;;;;;;8.09;91.07;99129.63;4963339;28;103169;-74
2022/11/30 10:10:40;;;;;;;22.50;14.93;;;;;;;8.33;91.05;99120.41;4963472;28;102691;-74
2022/11/30 10:13:29;;;;;;;22.63;16.03;;;;;;;7.66;92.80;99130.28;4960874;28;103981;-74
2022/11/30 10:16:12;;;;;;;22.13;15.60;;;;;;;7.75;95.79;99121.91;4968038;28;102589;-74
2022/11/30 10:18:49;;;;;;;21.83;15.10;;;;;;;8.29;94.21;99118.00;4949690;28;104482;-74
2022/11/30 10:21:40;;;;;;;19.73;15.33;;;;;;;8.23;90.66;99113.03;4947632;28;102868;-74
2022/11/30 10:24:21;;;;;;;21.77;15.10;;;;;;;8.53;90.78;99114.81;4979781;28;102628;-74
2022/11/30 10:26:54;;;;;;;21.17;13.53;;;;;;;8.57;89.80;99111.09;4975676;28;104044;-74
2022/11/30 10:29:29;;;;;;;18.87;14.13;;;;;;;8.79;87.91;99115.94;4982397;28;103194;-74
2022/11/30 10:32:12;;;;;;;19.93;13.03;;;;;;;8.88;87.96;99117.19;4979603;28;102766;-74
2022/11/30 10:34:42;;;;;;;19.30;13.37;;;;;;;8.20;87.62;99123.78;4989349;28;104078;-74
2022/11/30 10:37:18;;;;;;;20.97;13.67;;;;;;;8.22;90.20;99121.91;4960433;28;104111;-75
2022/11/30 10:39:58;;;;;;;18.77;12.73;;;;;;;8.02;91.35;99125.63;4964289;28;103219;-74
2022/11/30 10:42:32;;;;;;;23.07;13.67;;;;;;;8.28;89.41;99126.84;4965642;28;102738;-74
2022/11/30 10:45:05;;;;;;;18.87;13.50;;;;;;;7.98;91.36;99126.72;4974282;28;103809;-75
2022/11/30 10:47:38;;;;;;;18.40;13.47;;;;;;;7.81;91.83;99121.53;4959551;28;103258;-74
2022/11/30 10:50:07;;;;;;;18.63;13.80;;;;;;;7.66;91.18;99117.13;4949461;28;103155;-75
2022/11/30 10:52:41;;;;;;;19.33;14.20;;;;;;;7.90;92.51;99115.78;4946754;28;102732;-75
2022/11/30 10:55:14;;;;;;;18.77;13.87;;;;;;;8.18;90.56;99115.94;4964001;28;102620;-75
2022/11/30 10:57:43;;;;;;;18.27;13.33;;;;;;;8.21;89.71;99109.66;4958984;28;103280;-79
2022/11/30 11:00:15;;;;;;;20.90;14.13;;;;;;;7.92;90.63;99113.91;4966462;28;103311;-76
2022/11/30 11:02:46;;;;;;;18.70;14.00;;;;;;;8.25;90.40;99111.19;4961774;28;102848;-74
2022/11/30 11:05:18;;;;;;;17.97;14.00;;;;;;;7.96;88.75;99104.91;4957066;28;103845;-78
2022/11/30 11:07:56;;;;;;;21.43;14.07;;;;;;;8.14;87.79;99104.72;4961789;28;103383;-77
2022/11/30 11:10:35;;;;;;;16.13;12.33;;;;;;;8.59;86.87;99106.56;4958379;28;103309;-77
2022/11/30 11:13:04;;;;;;;18.00;13.07;;;;;;;8.55;84.58;99099.81;4976072;28;102547;-79
2022/11/30 11:15:35;;;;;;;18.40;13.10;;;;;;;8.11;87.43;99109.34;4964765;28;102745;-76
2022/11/30 11:18:21;;;;;;;14.53;10.93;;;;;;;8.86;86.65;99100.63;4976633;28;103253;-77
2022/11/30 11:21:01;;;;;;;14.83;10.90;;;;;;;9.06;84.77;99103.78;4956304;28;103216;-77
2022/11/30 11:23:36;;;;;;;13.97;11.00;;;;;;;8.77;87.10;99109.06;4975881;28;102716;-76
2022/11/30 11:26:05;;;;;;;15.20;11.60;;;;;;;8.85;86.46;99110.31;4963578;28;102719;-75
2022/11/30 11:28:35;;;;;;;14.77;11.30;;;;;;;8.71;85.76;99105.00;4962020;28;103315;-79
2022/11/30 11:31:17;;;;;;;14.13;9.57;;;;;;;9.15;85.78;99115.59;4961565;28;104176;-79
2022/11/30 11:33:53;;;;;;;16.80;11.60;;;;;;;9.22;84.38;99108.97;4957045;28;102561;-79
2022/11/30 11:36:29;;;;;;;16.17;11.30;;;;;;;9.44;84.34;99105.88;4959894;28;102750;-82
2022/11/30 11:38:58;;;;;;;14.03;10.70;;;;;;;9.36;83.83;99098.44;4972473;28;104048;-79
2022/11/30 11:41:29;;;;;;;16.73;12.57;;;;;;;8.85;84.11;99106.84;4960531;28;103297;-79
2022/11/30 11:44:01;;;;;;;14.83;11.60;;;;;;;8.54;86.44;99098.09;4958237;28;102577;-74
2022/11/30 11:46:32;;;;;;;17.67;12.33;;;;;;;8.62;85.92;99110.81;4961308;28;102872;-79
2022/11/30 11:49:04;;;;;;;15.33;12.13;;;;;;;8.21;86.17;99110.50;4961594;28;103838;-76
2022/11/30 11:51:33;;;;;;;14.13;11.67;;;;;;;8.18;85.21;99113.31;4963684;28;103379;-75
2022/11/30 11:54:07;;;;;;;12.73;10.73;;;;;;;8.15;86.24;99108.22;4965334;28;102593;-76
2022/11/30 11:56:37;;;;;;;14.97;12.27;;;;;;;8.12;87.24;99111.88;4955021;28;102737;-80
2022/11/30 11:59:14;;;;;;;14.97;11.10;;;;;;;8.55;86.04;99106.84;4956356;28;103447;-80
2022/11/30 12:01:50;;;;;;;15.10;11.37;;;;;;;8.65;83.65;99100.94;4972551;28;103207;-81
2022/11/30 12:04:39;;;;;;;14.43;10.60;;;;;;;8.22;86.08;99101.69;4964250;28;102886;-81
2022/11/30 12:07:19;;;;;;;15.00;10.23;;;;;;;8.42;86.76;99101.41;4963836;28;102741;-83